sensor_id;sensor_type;location;lat;lon;timestamp;P1;durP1;ratioP1;P2;durP2;ratioP2
65853;SDS011;52627;48.838;2.402;2023-05-10T00:01:12;7.90;;;2.10;;
65853;SDS011;52627;48.838;2.402;2023-05-10T00:03:39;7.20;;;2.10;;
65853;SDS011;52627;48.838;2.402;2023-05-10T00:06:07;9.20;;;1.70;;
65853;SDS011;52627;48.838;2.402;2023-05-10T00:08:35;8.60;;;1.90;;
65853;SDS011;52627;48.838;2.402;2023-05-10T00:11:02;6.80;;;2.20;;
65853;SDS011;52627;48.838;2.402;2023-05-10T00:13:30;8.10;;;1.90;;
65853;SDS011;52627;48.838;2.402;2023-05-10T00:15:58;6.80;;;1.50;;
65853;SDS011;52627;48.838;2.402;2023-05-10T00:18:26;7.30;;;1.90;;
65853;SDS011;52627;48.838;2.402;2023-05-10T00:20:54;7.20;;;1.80;;
65853;SDS011;52627;48.838;2.402;2023-05-10T00:23:21;6.70;;;1.30;;
65853;SDS011;52627;48.838;2.402;2023-05-10T00:25:48;6.60;;;1.70;;
65853;SDS011;52627;48.838;2.402;2023-05-10T00:28:16;10.20;;;1.80;;
65853;SDS011;52627;48.838;2.402;2023-05-10T00:30:44;5.60;;;1.40;;
65853;SDS011;52627;48.838;2.402;2023-05-10T00:33:11;7.80;;;1.60;;
65853;SDS011;52627;48.838;2.402;2023-05-10T00:35:39;6.20;;;1.40;;
65853;SDS011;52627;48.838;2.402;2023-05-10T00:38:07;6.50;;;1.70;;
65853;SDS011;52627;48.838;2.402;2023-05-10T00:40:36;7.40;;;1.60;;
65853;SDS011;52627;48.838;2.402;2023-05-10T00:43:07;7.10;;;1.50;;
65853;SDS011;52627;48.838;2.402;2023-05-10T00:45:35;9.60;;;1.60;;
65853;SDS011;52627;48.838;2.402;2023-05-10T00:48:04;6.40;;;1.90;;
65853;SDS011;52627;48.838;2.402;2023-05-10T00:50:32;6.80;;;1.70;;
65853;SDS011;52627;48.838;2.402;2023-05-10T00:53:01;10.70;;;2.10;;
65853;SDS011;52627;48.838;2.402;2023-05-10T00:55:30;6.60;;;1.90;;
65853;SDS011;52627;48.838;2.402;2023-05-10T00:57:58;5.80;;;1.30;;
65853;SDS011;52627;48.838;2.402;2023-05-10T01:00:25;6.10;;;1.50;;
65853;SDS011;52627;48.838;2.402;2023-05-10T01:02:53;6.90;;;1.40;;
65853;SDS011;52627;48.838;2.402;2023-05-10T01:05:21;8.00;;;1.70;;
65853;SDS011;52627;48.838;2.402;2023-05-10T01:07:49;6.80;;;1.30;;
65853;SDS011;52627;48.838;2.402;2023-05-10T01:10:16;6.30;;;1.40;;
65853;SDS011;52627;48.838;2.402;2023-05-10T01:12:46;5.60;;;1.40;;
65853;SDS011;52627;48.838;2.402;2023-05-10T01:15:15;4.00;;;1.20;;
65853;SDS011;52627;48.838;2.402;2023-05-10T01:17:44;4.20;;;1.30;;
65853;SDS011;52627;48.838;2.402;2023-05-10T01:20:14;6.40;;;1.30;;
65853;SDS011;52627;48.838;2.402;2023-05-10T01:23:04;4.10;;;1.10;;
65853;SDS011;52627;48.838;2.402;2023-05-10T01:26:30;6.70;;;1.30;;
65853;SDS011;52627;48.838;2.402;2023-05-10T01:34:35;5.90;;;1.30;;
65853;SDS011;52627;48.838;2.402;2023-05-10T01:37:11;4.70;;;1.10;;
65853;SDS011;52627;48.838;2.402;2023-05-10T01:40:08;5.40;;;1.20;;
65853;SDS011;52627;48.838;2.402;2023-05-10T01:43:03;7.30;;;1.20;;
65853;SDS011;52627;48.838;2.402;2023-05-10T01:45:58;5.50;;;1.10;;
65853;SDS011;52627;48.838;2.402;2023-05-10T01:48:28;4.70;;;1.20;;
65853;SDS011;52627;48.838;2.402;2023-05-10T01:50:58;4.00;;;1.10;;
65853;SDS011;52627;48.838;2.402;2023-05-10T01:53:26;4.80;;;1.50;;
65853;SDS011;52627;48.838;2.402;2023-05-10T01:55:55;3.80;;;1.00;;
65853;SDS011;52627;48.838;2.402;2023-05-10T01:58:28;4.40;;;1.40;;
65853;SDS011;52627;48.838;2.402;2023-05-10T02:01:00;4.70;;;1.00;;
65853;SDS011;52627;48.838;2.402;2023-05-10T02:05:58;4.90;;;1.00;;
65853;SDS011;52627;48.838;2.402;2023-05-10T02:08:26;5.50;;;1.00;;
65853;SDS011;52627;48.838;2.402;2023-05-10T02:10:56;4.50;;;0.90;;
65853;SDS011;52627;48.838;2.402;2023-05-10T02:13:25;6.70;;;1.30;;
65853;SDS011;52627;48.838;2.402;2023-05-10T02:15:55;8.30;;;1.70;;
65853;SDS011;52627;48.838;2.402;2023-05-10T02:18:25;5.10;;;1.10;;
65853;SDS011;52627;48.838;2.402;2023-05-10T02:20:55;4.90;;;1.30;;
65853;SDS011;52627;48.838;2.402;2023-05-10T02:23:23;5.70;;;1.70;;
65853;SDS011;52627;48.838;2.402;2023-05-10T02:25:52;3.30;;;1.00;;
65853;SDS011;52627;48.838;2.402;2023-05-10T02:28:22;4.80;;;1.00;;
65853;SDS011;52627;48.838;2.402;2023-05-10T02:30:52;6.70;;;1.00;;
65853;SDS011;52627;48.838;2.402;2023-05-10T02:33:21;6.80;;;1.20;;
65853;SDS011;52627;48.838;2.402;2023-05-10T02:35:50;3.60;;;1.10;;
65853;SDS011;52627;48.838;2.402;2023-05-10T02:38:20;6.10;;;1.30;;
65853;SDS011;52627;48.838;2.402;2023-05-10T02:40:48;5.10;;;1.20;;
65853;SDS011;52627;48.838;2.402;2023-05-10T02:43:16;7.50;;;1.90;;
65853;SDS011;52627;48.838;2.402;2023-05-10T02:45:47;4.10;;;1.20;;
65853;SDS011;52627;48.838;2.402;2023-05-10T02:48:15;4.50;;;1.10;;
65853;SDS011;52627;48.838;2.402;2023-05-10T02:50:44;6.50;;;1.20;;
65853;SDS011;52627;48.838;2.402;2023-05-10T02:53:21;4.90;;;1.30;;
65853;SDS011;52627;48.838;2.402;2023-05-10T02:55:52;4.30;;;1.20;;
65853;SDS011;52627;48.838;2.402;2023-05-10T02:58:19;3.40;;;1.00;;
65853;SDS011;52627;48.838;2.402;2023-05-10T03:00:48;6.60;;;1.20;;
65853;SDS011;52627;48.838;2.402;2023-05-10T03:03:15;4.40;;;1.10;;
65853;SDS011;52627;48.838;2.402;2023-05-10T03:05:42;3.50;;;1.10;;
65853;SDS011;52627;48.838;2.402;2023-05-10T03:08:10;5.30;;;1.20;;
65853;SDS011;52627;48.838;2.402;2023-05-10T03:11:21;6.70;;;1.00;;
65853;SDS011;52627;48.838;2.402;2023-05-10T03:14:34;3.80;;;1.00;;
65853;SDS011;52627;48.838;2.402;2023-05-10T03:17:29;5.40;;;1.40;;
65853;SDS011;52627;48.838;2.402;2023-05-10T03:20:03;5.30;;;1.10;;
65853;SDS011;52627;48.838;2.402;2023-05-10T03:22:37;4.10;;;1.00;;
65853;SDS011;52627;48.838;2.402;2023-05-10T03:25:08;5.10;;;1.10;;
65853;SDS011;52627;48.838;2.402;2023-05-10T03:27:40;3.20;;;1.00;;
65853;SDS011;52627;48.838;2.402;2023-05-10T03:30:13;6.50;;;1.50;;
65853;SDS011;52627;48.838;2.402;2023-05-10T03:32:41;5.70;;;1.50;;
65853;SDS011;52627;48.838;2.402;2023-05-10T03:35:09;3.40;;;1.00;;
65853;SDS011;52627;48.838;2.402;2023-05-10T03:37:39;4.90;;;1.10;;
65853;SDS011;52627;48.838;2.402;2023-05-10T03:40:07;4.60;;;1.20;;
65853;SDS011;52627;48.838;2.402;2023-05-10T03:42:37;3.60;;;1.00;;
65853;SDS011;52627;48.838;2.402;2023-05-10T03:45:05;6.60;;;1.20;;
65853;SDS011;52627;48.838;2.402;2023-05-10T03:47:33;5.10;;;1.10;;
65853;SDS011;52627;48.838;2.402;2023-05-10T03:50:00;4.30;;;1.60;;
65853;SDS011;52627;48.838;2.402;2023-05-10T03:52:29;3.50;;;1.00;;
65853;SDS011;52627;48.838;2.402;2023-05-10T03:54:57;5.90;;;1.30;;
65853;SDS011;52627;48.838;2.402;2023-05-10T03:57:24;4.80;;;1.20;;
65853;SDS011;52627;48.838;2.402;2023-05-10T03:59:51;4.50;;;1.20;;
65853;SDS011;52627;48.838;2.402;2023-05-10T04:02:19;5.90;;;1.30;;
65853;SDS011;52627;48.838;2.402;2023-05-10T04:04:46;4.10;;;1.20;;
65853;SDS011;52627;48.838;2.402;2023-05-10T04:07:14;3.30;;;1.30;;
65853;SDS011;52627;48.838;2.402;2023-05-10T04:09:41;3.80;;;1.20;;
65853;SDS011;52627;48.838;2.402;2023-05-10T04:12:09;6.30;;;1.30;;
65853;SDS011;52627;48.838;2.402;2023-05-10T04:14:37;5.40;;;1.40;;
65853;SDS011;52627;48.838;2.402;2023-05-10T04:17:04;5.10;;;1.40;;
65853;SDS011;52627;48.838;2.402;2023-05-10T04:19:33;5.40;;;1.40;;
65853;SDS011;52627;48.838;2.402;2023-05-10T04:22:02;7.50;;;1.80;;
65853;SDS011;52627;48.838;2.402;2023-05-10T04:24:30;11.10;;;2.00;;
65853;SDS011;52627;48.838;2.402;2023-05-10T04:26:57;4.70;;;1.40;;
65853;SDS011;52627;48.838;2.402;2023-05-10T04:29:25;5.30;;;1.50;;
65853;SDS011;52627;48.838;2.402;2023-05-10T04:31:53;5.80;;;1.40;;
65853;SDS011;52627;48.838;2.402;2023-05-10T04:34:21;5.60;;;1.50;;
65853;SDS011;52627;48.838;2.402;2023-05-10T04:36:48;5.20;;;1.70;;
65853;SDS011;52627;48.838;2.402;2023-05-10T04:39:15;3.30;;;1.60;;
65853;SDS011;52627;48.838;2.402;2023-05-10T04:41:43;5.50;;;1.30;;
65853;SDS011;52627;48.838;2.402;2023-05-10T04:44:10;4.50;;;1.40;;
65853;SDS011;52627;48.838;2.402;2023-05-10T04:46:38;3.60;;;1.30;;
65853;SDS011;52627;48.838;2.402;2023-05-10T04:49:06;3.60;;;1.40;;
65853;SDS011;52627;48.838;2.402;2023-05-10T04:51:33;3.20;;;1.30;;
65853;SDS011;52627;48.838;2.402;2023-05-10T04:54:00;3.60;;;1.40;;
65853;SDS011;52627;48.838;2.402;2023-05-10T04:56:32;5.80;;;1.70;;
65853;SDS011;52627;48.838;2.402;2023-05-10T04:59:01;7.20;;;2.00;;
65853;SDS011;52627;48.838;2.402;2023-05-10T05:01:28;5.40;;;1.60;;
65853;SDS011;52627;48.838;2.402;2023-05-10T05:03:55;5.80;;;1.70;;
65853;SDS011;52627;48.838;2.402;2023-05-10T05:06:23;6.00;;;1.90;;
65853;SDS011;52627;48.838;2.402;2023-05-10T05:08:52;4.70;;;1.90;;
65853;SDS011;52627;48.838;2.402;2023-05-10T05:11:20;5.70;;;2.30;;
65853;SDS011;52627;48.838;2.402;2023-05-10T05:13:48;7.00;;;2.70;;
65853;SDS011;52627;48.838;2.402;2023-05-10T05:16:15;9.80;;;2.60;;
65853;SDS011;52627;48.838;2.402;2023-05-10T05:18:43;8.10;;;2.80;;
65853;SDS011;52627;48.838;2.402;2023-05-10T05:21:15;6.30;;;2.50;;
65853;SDS011;52627;48.838;2.402;2023-05-10T05:23:47;5.30;;;2.50;;
65853;SDS011;52627;48.838;2.402;2023-05-10T05:26:14;8.20;;;2.20;;
65853;SDS011;52627;48.838;2.402;2023-05-10T05:28:42;6.20;;;2.30;;
65853;SDS011;52627;48.838;2.402;2023-05-10T05:31:09;6.20;;;2.70;;
65853;SDS011;52627;48.838;2.402;2023-05-10T05:33:37;7.70;;;2.70;;
65853;SDS011;52627;48.838;2.402;2023-05-10T05:36:05;5.00;;;2.50;;
65853;SDS011;52627;48.838;2.402;2023-05-10T05:38:33;9.00;;;3.10;;
65853;SDS011;52627;48.838;2.402;2023-05-10T05:41:00;5.50;;;2.50;;
65853;SDS011;52627;48.838;2.402;2023-05-10T05:43:28;8.10;;;3.30;;
65853;SDS011;52627;48.838;2.402;2023-05-10T05:45:56;7.60;;;2.80;;
65853;SDS011;52627;48.838;2.402;2023-05-10T05:48:25;7.80;;;3.30;;
65853;SDS011;52627;48.838;2.402;2023-05-10T05:50:56;7.70;;;3.90;;
65853;SDS011;52627;48.838;2.402;2023-05-10T05:53:24;9.30;;;3.00;;
65853;SDS011;52627;48.838;2.402;2023-05-10T05:55:57;10.80;;;3.60;;
65853;SDS011;52627;48.838;2.402;2023-05-10T05:58:25;6.20;;;3.30;;
65853;SDS011;52627;48.838;2.402;2023-05-10T06:00:53;10.40;;;3.40;;
65853;SDS011;52627;48.838;2.402;2023-05-10T06:03:21;11.10;;;3.50;;
65853;SDS011;52627;48.838;2.402;2023-05-10T06:05:49;9.40;;;4.20;;
65853;SDS011;52627;48.838;2.402;2023-05-10T06:08:16;8.20;;;3.30;;
65853;SDS011;52627;48.838;2.402;2023-05-10T06:10:44;9.20;;;3.70;;
65853;SDS011;52627;48.838;2.402;2023-05-10T06:13:12;9.10;;;3.60;;
65853;SDS011;52627;48.838;2.402;2023-05-10T06:15:40;10.30;;;3.40;;
65853;SDS011;52627;48.838;2.402;2023-05-10T06:18:07;12.10;;;4.10;;
65853;SDS011;52627;48.838;2.402;2023-05-10T06:20:35;8.00;;;3.50;;
65853;SDS011;52627;48.838;2.402;2023-05-10T06:23:03;8.40;;;3.80;;
65853;SDS011;52627;48.838;2.402;2023-05-10T06:25:30;15.00;;;4.30;;
65853;SDS011;52627;48.838;2.402;2023-05-10T06:27:58;13.10;;;3.70;;
65853;SDS011;52627;48.838;2.402;2023-05-10T06:30:25;8.00;;;3.40;;
65853;SDS011;52627;48.838;2.402;2023-05-10T06:32:56;8.10;;;3.10;;
65853;SDS011;52627;48.838;2.402;2023-05-10T06:35:24;5.90;;;2.70;;
65853;SDS011;52627;48.838;2.402;2023-05-10T06:37:52;6.30;;;2.80;;
65853;SDS011;52627;48.838;2.402;2023-05-10T06:40:20;6.00;;;2.50;;
65853;SDS011;52627;48.838;2.402;2023-05-10T06:42:47;7.40;;;2.90;;
65853;SDS011;52627;48.838;2.402;2023-05-10T06:45:15;6.80;;;3.30;;
65853;SDS011;52627;48.838;2.402;2023-05-10T06:47:43;9.80;;;3.60;;
65853;SDS011;52627;48.838;2.402;2023-05-10T06:50:11;9.60;;;3.70;;
65853;SDS011;52627;48.838;2.402;2023-05-10T06:52:39;12.30;;;4.00;;
65853;SDS011;52627;48.838;2.402;2023-05-10T06:55:07;9.80;;;3.40;;
65853;SDS011;52627;48.838;2.402;2023-05-10T06:57:35;10.30;;;3.70;;
65853;SDS011;52627;48.838;2.402;2023-05-10T07:00:03;11.80;;;3.70;;
65853;SDS011;52627;48.838;2.402;2023-05-10T07:02:32;10.50;;;4.30;;
65853;SDS011;52627;48.838;2.402;2023-05-10T07:05:00;9.40;;;3.70;;
65853;SDS011;52627;48.838;2.402;2023-05-10T07:07:29;10.00;;;3.80;;
65853;SDS011;52627;48.838;2.402;2023-05-10T07:09:57;11.00;;;4.80;;
65853;SDS011;52627;48.838;2.402;2023-05-10T07:12:25;9.50;;;3.50;;
65853;SDS011;52627;48.838;2.402;2023-05-10T07:14:53;8.40;;;3.70;;
65853;SDS011;52627;48.838;2.402;2023-05-10T07:17:20;13.40;;;4.40;;
65853;SDS011;52627;48.838;2.402;2023-05-10T07:19:48;9.90;;;4.10;;
65853;SDS011;52627;48.838;2.402;2023-05-10T07:22:15;11.00;;;4.10;;
65853;SDS011;52627;48.838;2.402;2023-05-10T07:24:44;10.40;;;4.00;;
65853;SDS011;52627;48.838;2.402;2023-05-10T07:27:11;7.50;;;3.70;;
65853;SDS011;52627;48.838;2.402;2023-05-10T07:29:40;9.30;;;3.80;;
65853;SDS011;52627;48.838;2.402;2023-05-10T07:32:07;8.70;;;4.80;;
65853;SDS011;52627;48.838;2.402;2023-05-10T07:34:35;8.70;;;4.50;;
65853;SDS011;52627;48.838;2.402;2023-05-10T07:37:02;10.90;;;4.10;;
65853;SDS011;52627;48.838;2.402;2023-05-10T07:39:30;6.50;;;3.60;;
65853;SDS011;52627;48.838;2.402;2023-05-10T07:41:57;8.80;;;4.30;;
65853;SDS011;52627;48.838;2.402;2023-05-10T07:44:25;8.80;;;4.60;;
65853;SDS011;52627;48.838;2.402;2023-05-10T07:46:52;11.60;;;3.90;;
65853;SDS011;52627;48.838;2.402;2023-05-10T07:49:20;9.20;;;4.30;;
65853;SDS011;52627;48.838;2.402;2023-05-10T07:51:47;7.80;;;4.00;;
65853;SDS011;52627;48.838;2.402;2023-05-10T07:54:15;10.20;;;4.20;;
65853;SDS011;52627;48.838;2.402;2023-05-10T07:56:43;11.60;;;4.20;;
65853;SDS011;52627;48.838;2.402;2023-05-10T07:59:15;8.40;;;3.60;;
65853;SDS011;52627;48.838;2.402;2023-05-10T08:01:44;7.80;;;3.30;;
65853;SDS011;52627;48.838;2.402;2023-05-10T08:04:12;7.50;;;3.70;;
65853;SDS011;52627;48.838;2.402;2023-05-10T08:06:40;9.30;;;3.60;;
65853;SDS011;52627;48.838;2.402;2023-05-10T08:09:08;12.10;;;4.10;;
65853;SDS011;52627;48.838;2.402;2023-05-10T08:11:36;11.00;;;4.60;;
65853;SDS011;52627;48.838;2.402;2023-05-10T08:14:04;16.30;;;5.40;;
65853;SDS011;52627;48.838;2.402;2023-05-10T08:16:32;13.30;;;5.20;;
65853;SDS011;52627;48.838;2.402;2023-05-10T08:18:59;12.70;;;6.10;;
65853;SDS011;52627;48.838;2.402;2023-05-10T08:21:27;10.90;;;5.30;;
65853;SDS011;52627;48.838;2.402;2023-05-10T08:23:54;11.80;;;5.70;;
65853;SDS011;52627;48.838;2.402;2023-05-10T08:26:22;13.30;;;5.60;;
65853;SDS011;52627;48.838;2.402;2023-05-10T08:28:49;11.40;;;5.20;;
65853;SDS011;52627;48.838;2.402;2023-05-10T08:31:17;12.50;;;5.70;;
65853;SDS011;52627;48.838;2.402;2023-05-10T08:33:45;12.60;;;5.60;;
65853;SDS011;52627;48.838;2.402;2023-05-10T08:36:12;11.70;;;5.10;;
65853;SDS011;52627;48.838;2.402;2023-05-10T08:38:42;11.40;;;5.30;;
65853;SDS011;52627;48.838;2.402;2023-05-10T08:41:09;12.30;;;5.00;;
65853;SDS011;52627;48.838;2.402;2023-05-10T08:43:38;9.30;;;4.10;;
65853;SDS011;52627;48.838;2.402;2023-05-10T08:46:09;10.60;;;4.80;;
65853;SDS011;52627;48.838;2.402;2023-05-10T08:48:37;11.30;;;4.40;;
65853;SDS011;52627;48.838;2.402;2023-05-10T08:51:06;13.80;;;5.20;;
65853;SDS011;52627;48.838;2.402;2023-05-10T08:53:36;12.20;;;4.80;;
65853;SDS011;52627;48.838;2.402;2023-05-10T08:56:04;11.60;;;4.60;;
65853;SDS011;52627;48.838;2.402;2023-05-10T08:58:32;12.20;;;4.70;;
65853;SDS011;52627;48.838;2.402;2023-05-10T09:01:00;10.50;;;4.60;;
65853;SDS011;52627;48.838;2.402;2023-05-10T09:03:29;14.00;;;5.10;;
65853;SDS011;52627;48.838;2.402;2023-05-10T09:05:57;11.80;;;5.50;;
65853;SDS011;52627;48.838;2.402;2023-05-10T09:08:25;16.00;;;6.10;;
65853;SDS011;52627;48.838;2.402;2023-05-10T09:10:54;15.20;;;5.70;;
65853;SDS011;52627;48.838;2.402;2023-05-10T09:13:23;17.00;;;6.40;;
65853;SDS011;52627;48.838;2.402;2023-05-10T09:15:52;18.70;;;6.00;;
65853;SDS011;52627;48.838;2.402;2023-05-10T09:18:20;15.20;;;5.50;;
65853;SDS011;52627;48.838;2.402;2023-05-10T09:20:48;16.40;;;6.10;;
65853;SDS011;52627;48.838;2.402;2023-05-10T09:23:16;20.70;;;6.30;;
65853;SDS011;52627;48.838;2.402;2023-05-10T09:25:43;18.20;;;6.70;;
65853;SDS011;52627;48.838;2.402;2023-05-10T09:28:11;16.50;;;5.90;;
65853;SDS011;52627;48.838;2.402;2023-05-10T09:30:39;15.70;;;6.10;;
65853;SDS011;52627;48.838;2.402;2023-05-10T09:33:06;20.80;;;6.70;;
65853;SDS011;52627;48.838;2.402;2023-05-10T09:35:34;23.30;;;8.50;;
65853;SDS011;52627;48.838;2.402;2023-05-10T09:38:04;21.10;;;7.70;;
65853;SDS011;52627;48.838;2.402;2023-05-10T09:40:32;14.70;;;6.50;;
65853;SDS011;52627;48.838;2.402;2023-05-10T09:43:02;19.70;;;6.50;;
65853;SDS011;52627;48.838;2.402;2023-05-10T09:45:33;18.30;;;6.20;;
65853;SDS011;52627;48.838;2.402;2023-05-10T09:48:05;18.00;;;6.40;;
65853;SDS011;52627;48.838;2.402;2023-05-10T09:50:33;18.00;;;5.90;;
65853;SDS011;52627;48.838;2.402;2023-05-10T09:53:03;21.00;;;6.60;;
65853;SDS011;52627;48.838;2.402;2023-05-10T09:55:45;21.40;;;6.80;;
65853;SDS011;52627;48.838;2.402;2023-05-10T09:58:13;16.50;;;6.40;;
65853;SDS011;52627;48.838;2.402;2023-05-10T10:00:43;17.80;;;6.30;;
65853;SDS011;52627;48.838;2.402;2023-05-10T10:03:19;17.80;;;5.80;;
65853;SDS011;52627;48.838;2.402;2023-05-10T10:05:48;21.80;;;6.30;;
65853;SDS011;52627;48.838;2.402;2023-05-10T10:08:17;14.90;;;5.80;;
65853;SDS011;52627;48.838;2.402;2023-05-10T10:10:44;17.10;;;5.40;;
65853;SDS011;52627;48.838;2.402;2023-05-10T10:13:14;14.30;;;5.90;;
65853;SDS011;52627;48.838;2.402;2023-05-10T10:15:42;21.50;;;6.30;;
65853;SDS011;52627;48.838;2.402;2023-05-10T10:18:14;17.00;;;5.50;;
65853;SDS011;52627;48.838;2.402;2023-05-10T10:20:43;23.50;;;5.70;;
65853;SDS011;52627;48.838;2.402;2023-05-10T10:23:10;14.80;;;6.00;;
65853;SDS011;52627;48.838;2.402;2023-05-10T10:25:38;21.60;;;5.90;;
65853;SDS011;52627;48.838;2.402;2023-05-10T10:31:15;20.30;;;5.60;;
65853;SDS011;52627;48.838;2.402;2023-05-10T10:34:08;21.70;;;6.70;;
65853;SDS011;52627;48.838;2.402;2023-05-10T10:36:47;23.60;;;5.80;;
65853;SDS011;52627;48.838;2.402;2023-05-10T10:39:15;22.40;;;6.40;;
65853;SDS011;52627;48.838;2.402;2023-05-10T10:41:54;20.40;;;6.90;;
65853;SDS011;52627;48.838;2.402;2023-05-10T10:52:31;20.90;;;7.70;;
65853;SDS011;52627;48.838;2.402;2023-05-10T10:55:03;23.70;;;7.60;;
65853;SDS011;52627;48.838;2.402;2023-05-10T10:57:56;21.30;;;7.10;;
65853;SDS011;52627;48.838;2.402;2023-05-10T11:00:32;21.60;;;6.10;;
65853;SDS011;52627;48.838;2.402;2023-05-10T11:03:09;20.20;;;6.20;;
65853;SDS011;52627;48.838;2.402;2023-05-10T11:05:40;15.40;;;5.30;;
65853;SDS011;52627;48.838;2.402;2023-05-10T11:08:18;21.60;;;5.40;;
65853;SDS011;52627;48.838;2.402;2023-05-10T11:13:40;17.30;;;5.80;;
65853;SDS011;52627;48.838;2.402;2023-05-10T11:16:17;16.40;;;4.90;;
65853;SDS011;52627;48.838;2.402;2023-05-10T11:19:06;19.20;;;5.30;;
65853;SDS011;52627;48.838;2.402;2023-05-10T11:21:45;20.70;;;5.40;;
65853;SDS011;52627;48.838;2.402;2023-05-10T11:24:20;11.90;;;4.70;;
65853;SDS011;52627;48.838;2.402;2023-05-10T11:26:50;14.90;;;5.90;;
65853;SDS011;52627;48.838;2.402;2023-05-10T11:29:20;19.70;;;6.60;;
65853;SDS011;52627;48.838;2.402;2023-05-10T11:31:49;17.70;;;5.20;;
65853;SDS011;52627;48.838;2.402;2023-05-10T11:34:31;12.00;;;5.20;;
65853;SDS011;52627;48.838;2.402;2023-05-10T11:37:01;16.10;;;5.20;;
65853;SDS011;52627;48.838;2.402;2023-05-10T11:39:30;19.10;;;5.30;;
65853;SDS011;52627;48.838;2.402;2023-05-10T11:41:59;17.10;;;5.70;;
65853;SDS011;52627;48.838;2.402;2023-05-10T11:44:33;13.30;;;4.70;;
65853;SDS011;52627;48.838;2.402;2023-05-10T11:47:01;15.10;;;5.10;;
65853;SDS011;52627;48.838;2.402;2023-05-10T11:49:30;16.30;;;5.20;;
65853;SDS011;52627;48.838;2.402;2023-05-10T11:52:07;15.60;;;4.30;;
65853;SDS011;52627;48.838;2.402;2023-05-10T11:54:35;12.20;;;4.60;;
65853;SDS011;52627;48.838;2.402;2023-05-10T11:57:03;17.20;;;4.40;;
65853;SDS011;52627;48.838;2.402;2023-05-10T11:59:31;11.90;;;4.50;;
65853;SDS011;52627;48.838;2.402;2023-05-10T12:01:58;14.50;;;4.40;;
65853;SDS011;52627;48.838;2.402;2023-05-10T12:04:26;18.70;;;4.90;;
65853;SDS011;52627;48.838;2.402;2023-05-10T12:06:56;16.20;;;4.40;;
65853;SDS011;52627;48.838;2.402;2023-05-10T12:09:24;13.20;;;4.90;;
65853;SDS011;52627;48.838;2.402;2023-05-10T12:12:09;11.60;;;4.40;;
65853;SDS011;52627;48.838;2.402;2023-05-10T12:14:37;15.50;;;4.30;;
65853;SDS011;52627;48.838;2.402;2023-05-10T12:17:04;11.60;;;4.60;;
65853;SDS011;52627;48.838;2.402;2023-05-10T12:19:38;13.40;;;4.90;;
65853;SDS011;52627;48.838;2.402;2023-05-10T12:22:06;12.40;;;4.60;;
65853;SDS011;52627;48.838;2.402;2023-05-10T12:24:35;11.20;;;4.00;;
65853;SDS011;52627;48.838;2.402;2023-05-10T12:27:08;19.00;;;4.10;;
65853;SDS011;52627;48.838;2.402;2023-05-10T12:29:53;9.70;;;3.50;;
65853;SDS011;52627;48.838;2.402;2023-05-10T12:32:38;13.70;;;3.80;;
65853;SDS011;52627;48.838;2.402;2023-05-10T12:35:07;11.80;;;3.80;;
65853;SDS011;52627;48.838;2.402;2023-05-10T12:37:35;8.50;;;3.80;;
65853;SDS011;52627;48.838;2.402;2023-05-10T12:40:08;9.90;;;3.80;;
65853;SDS011;52627;48.838;2.402;2023-05-10T12:42:37;12.50;;;4.80;;
65853;SDS011;52627;48.838;2.402;2023-05-10T12:45:06;11.80;;;4.20;;
65853;SDS011;52627;48.838;2.402;2023-05-10T12:47:35;12.40;;;4.20;;
65853;SDS011;52627;48.838;2.402;2023-05-10T12:50:04;13.90;;;4.50;;
65853;SDS011;52627;48.838;2.402;2023-05-10T12:52:32;12.90;;;4.20;;
65853;SDS011;52627;48.838;2.402;2023-05-10T12:55:00;12.00;;;3.70;;
65853;SDS011;52627;48.838;2.402;2023-05-10T12:57:27;14.50;;;4.00;;
65853;SDS011;52627;48.838;2.402;2023-05-10T12:59:55;12.30;;;3.60;;
65853;SDS011;52627;48.838;2.402;2023-05-10T13:02:22;10.40;;;3.70;;
65853;SDS011;52627;48.838;2.402;2023-05-10T13:04:50;9.20;;;3.80;;
65853;SDS011;52627;48.838;2.402;2023-05-10T13:07:17;12.00;;;4.50;;
65853;SDS011;52627;48.838;2.402;2023-05-10T13:09:45;13.00;;;4.30;;
65853;SDS011;52627;48.838;2.402;2023-05-10T13:12:12;12.40;;;4.20;;
65853;SDS011;52627;48.838;2.402;2023-05-10T13:14:39;11.00;;;4.30;;
65853;SDS011;52627;48.838;2.402;2023-05-10T13:17:07;18.10;;;5.00;;
65853;SDS011;52627;48.838;2.402;2023-05-10T13:19:35;11.90;;;4.40;;
65853;SDS011;52627;48.838;2.402;2023-05-10T13:22:02;10.90;;;5.00;;
65853;SDS011;52627;48.838;2.402;2023-05-10T13:24:30;14.70;;;5.30;;
65853;SDS011;52627;48.838;2.402;2023-05-10T13:26:57;12.80;;;5.10;;
65853;SDS011;52627;48.838;2.402;2023-05-10T13:29:25;10.40;;;5.60;;
65853;SDS011;52627;48.838;2.402;2023-05-10T13:31:52;16.90;;;5.40;;
65853;SDS011;52627;48.838;2.402;2023-05-10T13:34:20;12.10;;;5.10;;
65853;SDS011;52627;48.838;2.402;2023-05-10T13:36:47;11.60;;;4.70;;
65853;SDS011;52627;48.838;2.402;2023-05-10T13:39:15;16.80;;;5.60;;
65853;SDS011;52627;48.838;2.402;2023-05-10T13:41:43;15.60;;;5.20;;
65853;SDS011;52627;48.838;2.402;2023-05-10T13:44:12;15.20;;;5.30;;
65853;SDS011;52627;48.838;2.402;2023-05-10T13:46:41;15.90;;;4.90;;
65853;SDS011;52627;48.838;2.402;2023-05-10T13:49:09;15.80;;;5.10;;
65853;SDS011;52627;48.838;2.402;2023-05-10T13:51:36;14.20;;;5.00;;
65853;SDS011;52627;48.838;2.402;2023-05-10T13:54:04;15.80;;;5.10;;
65853;SDS011;52627;48.838;2.402;2023-05-10T13:56:32;17.00;;;5.30;;
65853;SDS011;52627;48.838;2.402;2023-05-10T13:59:00;12.10;;;4.50;;
65853;SDS011;52627;48.838;2.402;2023-05-10T14:01:27;10.50;;;4.10;;
65853;SDS011;52627;48.838;2.402;2023-05-10T14:03:55;11.20;;;4.50;;
65853;SDS011;52627;48.838;2.402;2023-05-10T14:06:22;12.90;;;5.20;;
65853;SDS011;52627;48.838;2.402;2023-05-10T14:08:49;14.10;;;6.30;;
65853;SDS011;52627;48.838;2.402;2023-05-10T14:11:17;15.40;;;5.10;;
65853;SDS011;52627;48.838;2.402;2023-05-10T14:13:45;13.00;;;5.30;;
65853;SDS011;52627;48.838;2.402;2023-05-10T14:16:12;15.30;;;5.20;;
65853;SDS011;52627;48.838;2.402;2023-05-10T14:18:41;16.50;;;5.50;;
65853;SDS011;52627;48.838;2.402;2023-05-10T14:21:09;17.30;;;5.50;;
65853;SDS011;52627;48.838;2.402;2023-05-10T14:23:36;12.00;;;4.70;;
65853;SDS011;52627;48.838;2.402;2023-05-10T14:26:04;12.20;;;5.20;;
65853;SDS011;52627;48.838;2.402;2023-05-10T14:28:31;14.80;;;5.10;;
65853;SDS011;52627;48.838;2.402;2023-05-10T14:30:59;15.30;;;5.30;;
65853;SDS011;52627;48.838;2.402;2023-05-10T14:33:26;12.00;;;5.00;;
65853;SDS011;52627;48.838;2.402;2023-05-10T14:35:54;15.80;;;4.60;;
65853;SDS011;52627;48.838;2.402;2023-05-10T14:38:23;14.10;;;5.30;;
65853;SDS011;52627;48.838;2.402;2023-05-10T14:40:51;12.00;;;4.70;;
65853;SDS011;52627;48.838;2.402;2023-05-10T14:43:18;16.10;;;4.60;;
65853;SDS011;52627;48.838;2.402;2023-05-10T14:45:45;14.80;;;4.70;;
65853;SDS011;52627;48.838;2.402;2023-05-10T14:48:13;11.30;;;4.40;;
65853;SDS011;52627;48.838;2.402;2023-05-10T14:50:45;11.30;;;4.50;;
65853;SDS011;52627;48.838;2.402;2023-05-10T14:53:13;11.90;;;4.50;;
65853;SDS011;52627;48.838;2.402;2023-05-10T14:55:40;17.40;;;4.70;;
65853;SDS011;52627;48.838;2.402;2023-05-10T14:58:07;11.40;;;4.20;;
65853;SDS011;52627;48.838;2.402;2023-05-10T15:00:35;11.40;;;5.10;;
65853;SDS011;52627;48.838;2.402;2023-05-10T15:03:03;14.30;;;4.70;;
65853;SDS011;52627;48.838;2.402;2023-05-10T15:05:31;18.60;;;5.10;;
65853;SDS011;52627;48.838;2.402;2023-05-10T15:07:59;17.70;;;4.80;;
65853;SDS011;52627;48.838;2.402;2023-05-10T15:10:26;10.30;;;4.90;;
65853;SDS011;52627;48.838;2.402;2023-05-10T15:12:54;13.90;;;4.50;;
65853;SDS011;52627;48.838;2.402;2023-05-10T15:15:22;14.70;;;4.60;;
65853;SDS011;52627;48.838;2.402;2023-05-10T15:17:49;13.50;;;4.20;;